Time;durP1;ratioP1;P1;durP2;ratioP2;P2;SDS_P1;SDS_P2;PMS_P1;PMS_P2;Temp;Humidity;BMP_temperature;BMP_pressure;BME280_temperature;BME280_humidity;BME280_pressure;Samples;Min_cycle;Max_cycle;Signal;HPM_P1;HPM_P2
2023/01/04 00:03:46;;;;;;;3.95;1.10;;;6.60;99.90;;;;;;12544811;28;20596;-86
2023/01/04 00:09:47;;;;;;;4.57;1.10;;;6.60;99.90;;;;;;12580412;28;20052;-86
2023/01/04 00:15:49;;;;;;;6.88;1.33;;;6.60;99.90;;;;;;12563146;28;20044;-86
2023/01/04 00:21:52;;;;;;;4.95;0.85;;;6.70;99.90;;;;;;12579676;28;20047;-86
2023/01/04 00:27:54;;;;;;;3.47;0.98;;;6.70;99.90;;;;;;12588378;28;20056;-86
2023/01/04 00:33:57;;;;;;;6.15;1.05;;;6.70;99.90;;;;;;12589431;28;20053;-87
2023/01/04 00:39:59;;;;;;;6.77;1.20;;;6.60;99.90;;;;;;12590184;28;20041;-86
2023/01/04 00:46:02;;;;;;;6.90;0.77;;;6.70;99.90;;;;;;12595679;28;20488;-85
2023/01/04 00:52:04;;;;;;;4.43;1.13;;;6.60;99.90;;;;;;12582703;28;20616;-87
2023/01/04 00:58:06;;;;;;;4.68;0.90;;;6.70;99.90;;;;;;12577654;28;20053;-85
2023/01/04 01:04:14;;;;;;;9.00;1.15;;;6.70;99.90;;;;;;12587808;28;20059;-86
2023/01/04 01:10:16;;;;;;;4.80;1.13;;;6.70;99.90;;;;;;12583919;28;20182;-85
2023/01/04 01:16:21;;;;;;;5.10;1.20;;;6.70;99.90;;;;;;12576612;28;20048;-86
2023/01/04 01:22:43;;;;;;;3.42;0.70;;;6.80;99.90;;;;;;12599542;28;20401;-85
2023/01/04 01:28:45;;;;;;;5.60;0.82;;;6.80;99.90;;;;;;12591762;28;20075;-86
2023/01/04 01:34:47;;;;;;;2.90;0.90;;;6.90;99.90;;;;;;12569225;28;20059;-86
2023/01/04 01:40:49;;;;;;;5.93;1.17;;;6.90;99.90;;;;;;12595832;28;20044;-86
2023/01/04 01:46:53;;;;;;;4.30;0.73;;;7.00;99.90;;;;;;12575485;28;20060;-86
2023/01/04 01:52:58;;;;;;;8.93;1.40;;;7.00;99.90;;;;;;12568821;28;20507;-86
2023/01/04 01:59:00;;;;;;;5.40;1.08;;;7.10;99.90;;;;;;12552759;28;20139;-86
2023/01/04 02:05:02;;;;;;;6.72;1.80;;;7.20;99.90;;;;;;12570877;28;20037;-86
2023/01/04 02:11:04;;;;;;;6.43;1.38;;;7.20;99.90;;;;;;12572294;28;20052;-86
2023/01/04 02:17:37;;;;;;;4.80;1.10;;;7.20;99.90;;;;;;12573838;28;20052;-85
2023/01/04 02:24:08;;;;;;;3.88;0.80;;;7.40;99.90;;;;;;12569605;28;20040;-86
2023/01/04 02:30:43;;;;;;;3.22;0.65;;;7.40;99.90;;;;;;12603561;28;20124;-86
2023/01/04 02:37:10;;;;;;;2.30;0.90;;;7.40;99.90;;;;;;12591406;28;20086;-86
2023/01/04 02:56:51;;;;;;;3.47;1.00;;;7.10;99.90;;;;;;12586385;28;20069;-86
2023/01/04 03:09:36;;;;;;;5.75;1.13;;;7.00;99.90;;;;;;12587355;28;20055;-87
2023/01/04 03:15:38;;;;;;;;;;;6.90;99.90;;;;;;12559827;28;20831;-86
2023/01/04 03:21:44;;;;;;;4.72;1.00;;;6.90;99.90;;;;;;12595068;28;19935;-86
2023/01/04 03:53:18;;;;;;;3.05;1.27;;;7.00;99.90;;;;;;12592123;28;20135;-86
2023/01/04 03:59:22;;;;;;;3.85;1.15;;;7.10;99.90;;;;;;12567343;28;20053;-86
2023/01/04 04:11:44;;;;;;;4.20;1.27;;;7.20;99.90;;;;;;12588603;28;20189;-87
2023/01/04 04:17:46;;;;;;;6.20;1.40;;;7.20;99.90;;;;;;12579673;28;20048;-86
2023/01/04 04:23:48;;;;;;;5.32;1.55;;;7.20;99.90;;;;;;12584041;28;20043;-86
2023/01/04 04:29:49;;;;;;;5.85;1.45;;;7.20;99.90;;;;;;12580239;28;20048;-86
2023/01/04 04:35:52;;;;;;;7.78;1.73;;;7.30;99.90;;;;;;12601212;28;20052;-87
2023/01/04 04:41:54;;;;;;;7.63;1.65;;;7.30;99.90;;;;;;12585336;28;20800;-87
2023/01/04 04:47:56;;;;;;;2.78;1.02;;;7.30;99.90;;;;;;12599420;28;20472;-86
2023/01/04 04:53:58;;;;;;;4.85;1.27;;;7.30;99.90;;;;;;12592928;28;20044;-87
2023/01/04 05:00:00;;;;;;;5.38;1.15;;;7.40;99.90;;;;;;12574307;28;20056;-86
2023/01/04 05:06:02;;;;;;;5.10;0.95;;;7.50;99.90;;;;;;12598063;28;20092;-86
2023/01/04 05:18:24;;;;;;;4.15;1.10;;;7.70;99.90;;;;;;12595402;28;20036;-86
2023/01/04 05:24:26;;;;;;;2.70;0.93;;;7.70;99.90;;;;;;12586385;28;20051;-86
2023/01/04 05:36:48;;;;;;;4.85;0.95;;;7.90;99.90;;;;;;12601279;28;20044;-86
2023/01/04 05:42:50;;;;;;;2.40;1.00;;;7.90;99.90;;;;;;12597138;28;20045;-85
2023/01/04 05:48:52;;;;;;;2.63;1.17;;;8.00;99.90;;;;;;12599901;28;20059;-86
2023/01/04 05:54:53;;;;;;;2.60;0.80;;;8.00;99.90;;;;;;12595190;28;20089;-86
2023/01/04 06:00:55;;;;;;;3.60;0.77;;;8.20;99.90;;;;;;12566570;28;20113;-86
2023/01/04 06:06:57;;;;;;;1.60;0.70;;;8.20;99.90;;;;;;12579007;28;20068;-86
2023/01/04 06:12:59;;;;;;;2.42;0.90;;;8.40;99.90;;;;;;12564137;28;20123;-86
2023/01/04 06:19:01;;;;;;;1.17;0.70;;;8.30;99.90;;;;;;12569312;28;20515;-86
2023/01/04 06:25:04;;;;;;;1.73;0.90;;;8.30;99.90;;;;;;12580673;28;20073;-86
2023/01/04 06:31:07;;;;;;;4.05;1.42;;;8.40;99.90;;;;;;12601646;28;20067;-86
2023/01/04 06:37:09;;;;;;;3.05;1.08;;;8.40;99.90;;;;;;12590221;28;20048;-86
2023/01/04 06:43:10;;;;;;;1.77;0.90;;;8.50;99.90;;;;;;12579502;28;20036;-86
2023/01/04 06:49:13;;;;;;;1.50;0.80;;;8.50;99.90;;;;;;12591697;28;20056;-86
2023/01/04 06:55:15;;;;;;;3.90;1.20;;;8.50;99.90;;;;;;12592965;28;20052;-86
2023/01/04 07:01:16;;;;;;;3.60;2.00;;;8.60;99.90;;;;;;12556905;28;20056;-86
2023/01/04 07:07:18;;;;;;;3.15;1.08;;;8.60;99.90;;;;;;12569064;28;20049;-86
2023/01/04 07:13:20;;;;;;;3.10;1.05;;;8.70;99.90;;;;;;12560467;28;20040;-86
2023/01/04 07:19:22;;;;;;;4.45;1.15;;;8.70;99.90;;;;;;12588751;28;20059;-87
2023/01/04 07:25:24;;;;;;;3.15;1.30;;;8.80;99.90;;;;;;12588468;28;20044;-86
2023/01/04 07:31:25;;;;;;;4.55;1.90;;;8.90;99.90;;;;;;12590418;28;20083;-87
2023/01/04 07:37:27;;;;;;;2.17;1.30;;;8.90;99.90;;;;;;12585448;28;20143;-87
2023/01/04 07:43:29;;;;;;;3.50;1.17;;;8.90;99.90;;;;;;12580921;28;20036;-87
2023/01/04 07:49:31;;;;;;;2.13;1.08;;;9.00;99.90;;;;;;12584164;28;20070;-87
2023/01/04 07:55:32;;;;;;;3.38;1.10;;;9.00;99.90;;;;;;12589201;28;20466;-85
2023/01/04 08:01:36;;;;;;;1.73;1.13;;;9.10;99.90;;;;;;12590513;28;20055;-87
2023/01/04 08:07:38;;;;;;;3.72;1.50;;;9.10;99.90;;;;;;12600114;28;20131;-86
2023/01/04 08:13:41;;;;;;;1.50;1.02;;;9.10;99.90;;;;;;12578947;28;20488;-87
2023/01/04 08:19:45;;;;;;;2.60;1.40;;;9.00;99.90;;;;;;12584541;28;20049;-87
2023/01/04 08:25:47;;;;;;;4.82;1.10;;;9.00;99.90;;;;;;12582235;28;20051;-87
2023/01/04 08:31:49;;;;;;;4.03;1.23;;;9.00;99.90;;;;;;12604587;28;20048;-87
2023/01/04 08:37:51;;;;;;;3.28;1.40;;;8.90;99.90;;;;;;12582736;28;20041;-87
2023/01/04 08:43:52;;;;;;;1.63;0.95;;;8.90;99.90;;;;;;12570390;28;20037;-87
2023/01/04 08:49:54;;;;;;;1.73;1.27;;;9.00;99.90;;;;;;12587557;28;20056;-86
2023/01/04 08:55:58;;;;;;;2.88;1.30;;;9.10;99.90;;;;;;12584629;28;20110;-87
2023/01/04 09:02:01;;;;;;;2.83;1.25;;;9.10;99.90;;;;;;12595484;28;20413;-87
2023/01/04 09:08:06;;;;;;;3.25;0.88;;;9.20;99.90;;;;;;12581223;28;20045;-87
2023/01/04 09:14:09;;;;;;;1.70;1.00;;;9.30;99.90;;;;;;12572612;28;20105;-87
2023/01/04 09:20:11;;;;;;;1.63;1.13;;;9.30;99.90;;;;;;12587685;28;20726;-87
2023/01/04 09:26:23;;;;;;;1.38;1.05;;;9.40;99.90;;;;;;12576021;28;20108;-86
2023/01/04 09:32:25;;;;;;;1.92;1.30;;;9.40;99.90;;;;;;12569895;28;20053;-87
2023/01/04 09:38:27;;;;;;;1.42;1.00;;;9.50;99.90;;;;;;12519944;28;20053;-87
2023/01/04 09:44:34;;;;;;;2.22;1.10;;;9.50;99.90;;;;;;12528200;28;20049;-86
2023/01/04 09:51:01;;;;;;;2.05;0.90;;;9.50;99.90;;;;;;12544401;28;20053;-86
2023/01/04 09:57:04;;;;;;;2.65;1.20;;;9.40;99.90;;;;;;12564112;28;20390;-87
2023/01/04 10:03:11;;;;;;;1.55;1.08;;;9.40;99.90;;;;;;12546508;28;20045;-89
2023/01/04 10:09:15;;;;;;;1.75;1.27;;;9.40;99.90;;;;;;12532935;28;20057;-86
2023/01/04 10:15:32;;;;;;;1.67;1.00;;;9.40;99.90;;;;;;12534325;28;20063;-87
2023/01/04 10:21:52;;;;;;;1.98;1.08;;;9.30;99.90;;;;;;12539121;28;20057;-87
2023/01/04 10:28:12;;;;;;;2.60;1.27;;;9.40;99.90;;;;;;12548810;28;20045;-86
2023/01/04 10:34:24;;;;;;;1.40;1.08;;;9.50;99.90;;;;;;12542897;28;20053;-87
2023/01/04 10:40:30;;;;;;;2.20;1.52;;;9.50;99.90;;;;;;12549596;28;20048;-87
2023/01/04 10:46:59;;;;;;;2.90;1.20;;;9.60;99.90;;;;;;12516320;28;20101;-87
2023/01/04 10:53:24;;;;;;;2.35;1.13;;;9.60;99.90;;;;;;12550440;28;20048;-87
2023/01/04 10:59:33;;;;;;;1.60;0.90;;;9.60;99.90;;;;;;12554589;28;20094;-87
2023/01/04 11:05:51;;;;;;;0.93;0.77;;;9.60;99.90;;;;;;12533308;28;20080;-86
2023/01/04 11:11:56;;;;;;;1.85;0.98;;;9.70;99.90;;;;;;12533943;28;20063;-87
2023/01/04 11:18:01;;;;;;;2.30;0.93;;;9.60;99.90;;;;;;12542738;28;20364;-87
2023/01/04 11:24:06;;;;;;;2.58;1.00;;;9.60;99.90;;;;;;12522731;28;20045;-87
2023/01/04 11:30:37;;;;;;;1.27;0.90;;;9.70;99.90;;;;;;12533083;28;20047;-87
2023/01/04 11:36:40;;;;;;;1.70;0.93;;;9.70;99.90;;;;;;12534573;28;20053;-87
2023/01/04 11:42:46;;;;;;;3.08;1.15;;;9.70;99.90;;;;;;12561077;28;20055;-87
2023/01/04 11:48:50;;;;;;;1.63;1.10;;;9.80;99.90;;;;;;12536680;28;20044;-87
2023/01/04 11:54:52;;;;;;;3.15;1.42;;;9.80;99.90;;;;;;12530794;28;20118;-88
2023/01/04 12:00:55;;;;;;;2.28;1.40;;;9.80;99.90;;;;;;12530407;28;20445;-87
2023/01/04 12:07:01;;;;;;;2.27;1.50;;;9.80;99.90;;;;;;12539150;28;20053;-87
2023/01/04 12:13:08;;;;;;;2.67;1.10;;;9.80;99.90;;;;;;12539456;28;20546;-87
2023/01/04 12:19:18;;;;;;;2.05;1.50;;;9.80;99.90;;;;;;12536479;28;20049;-87
2023/01/04 12:25:22;;;;;;;2.92;1.67;;;10.00;99.90;;;;;;12527508;28;21467;-86
2023/01/04 12:31:24;;;;;;;;;;;10.00;99.90;;;;;;12534776;28;20053;-88
2023/01/04 12:37:44;;;;;;;2.38;1.65;;;10.00;99.90;;;;;;12545647;28;19927;-87
2023/01/04 12:43:48;;;;;;;3.33;2.00;;;10.10;99.90;;;;;;12578292;28;20146;-87
2023/01/04 12:49:56;;;;;;;2.90;1.80;;;10.20;99.90;;;;;;12589149;28;20181;-87
2023/01/04 12:55:58;;;;;;;3.05;2.13;;;10.20;99.90;;;;;;12575029;28;20106;-87
2023/01/04 13:02:19;;;;;;;4.20;2.45;;;10.20;99.90;;;;;;12589035;28;20093;-87
2023/01/04 13:08:21;;;;;;;2.97;2.20;;;10.30;99.90;;;;;;12579178;28;20048;-87
2023/01/04 13:14:45;;;;;;;3.78;2.25;;;10.30;99.90;;;;;;12573067;28;20044;-87
2023/01/04 13:20:48;;;;;;;2.70;2.08;;;10.40;99.90;;;;;;12585331;28;20052;-87
2023/01/04 13:26:51;;;;;;;2.80;2.15;;;10.40;99.90;;;;;;12591108;28;20155;-87
2023/01/04 13:32:53;;;;;;;2.53;2.17;;;10.40;99.90;;;;;;12579355;28;20059;-87
2023/01/04 13:39:15;;;;;;;3.83;2.70;;;10.50;99.90;;;;;;12588058;28;20052;-87
2023/01/04 13:45:48;;;;;;;4.68;2.75;;;10.60;99.90;;;;;;12586983;28;20051;-87
2023/01/04 13:51:50;;;;;;;3.70;2.90;;;10.60;99.90;;;;;;12586700;28;20037;-87
2023/01/04 13:58:17;;;;;;;5.68;2.85;;;10.60;99.90;;;;;;12573971;28;20473;-88
2023/01/04 14:04:30;;;;;;;3.97;3.58;;;10.60;99.90;;;;;;12582933;28;20131;-87
2023/01/04 14:10:32;;;;;;;6.20;4.10;;;10.70;99.90;;;;;;12550879;28;20068;-87
2023/01/04 14:16:33;;;;;;;4.43;3.72;;;10.80;99.90;;;;;;12586188;28;20131;-87
2023/01/04 14:22:48;;;;;;;3.92;3.53;;;10.90;99.90;;;;;;12594809;28;20052;-87
2023/01/04 14:28:50;;;;;;;2.80;2.50;;;11.00;99.90;;;;;;12595600;28;20059;-86
2023/01/04 14:34:53;;;;;;;3.13;2.05;;;11.20;99.90;;;;;;12537483;28;20383;-86
2023/01/04 14:40:55;;;;;;;4.18;2.30;;;11.30;99.90;;;;;;12490630;28;20060;-87
2023/01/04 14:47:00;;;;;;;5.10;2.05;;;11.20;99.90;;;;;;12505511;28;20049;-86
2023/01/04 14:53:02;;;;;;;3.67;1.90;;;11.20;99.90;;;;;;12491564;28;20136;-86
2023/01/04 14:59:04;;;;;;;6.28;2.00;;;11.20;99.90;;;;;;12493120;28;20485;-86
2023/01/04 15:05:07;;;;;;;5.30;1.83;;;11.20;99.90;;;;;;12494586;28;20047;-87
2023/01/04 15:11:12;;;;;;;4.05;1.13;;;11.20;99.90;;;;;;12472165;28;20090;-86
2023/01/04 15:17:14;;;;;;;4.40;1.35;;;11.30;99.90;;;;;;12503495;28;20183;-87
2023/01/04 15:23:15;;;;;;;4.50;0.90;;;11.40;99.90;;;;;;12497137;28;20115;-87
2023/01/04 15:29:17;;;;;;;3.83;1.08;;;11.50;99.90;;;;;;12501693;28;20494;-87
2023/01/04 15:35:19;;;;;;;6.03;1.35;;;11.50;99.90;;;;;;12561009;28;20118;-87
2023/01/04 15:47:42;;;;;;;4.90;1.38;;;11.40;99.90;;;;;;12587544;28;20508;-86
2023/01/04 15:53:43;;;;;;;5.05;1.10;;;11.40;99.90;;;;;;12572425;28;20048;-86
2023/01/04 15:59:46;;;;;;;5.82;1.25;;;11.40;99.90;;;;;;12576915;28;20045;-86
2023/01/04 16:05:48;;;;;;;5.57;1.52;;;11.30;99.90;;;;;;12559059;28;20040;-87
2023/01/04 16:18:11;;;;;;;5.30;1.40;;;11.40;99.90;;;;;;12580402;28;20055;-86
2023/01/04 16:24:12;;;;;;;5.40;1.40;;;11.40;99.90;;;;;;12574403;28;20041;-86
2023/01/04 16:30:34;;;;;;;3.55;1.42;;;11.40;99.90;;;;;;12586898;28;20040;-87
2023/01/04 16:36:36;;;;;;;4.13;1.33;;;11.40;99.90;;;;;;12589894;28;20428;-87
2023/01/04 16:42:38;;;;;;;7.50;1.50;;;11.30;99.90;;;;;;12586339;28;20044;-87
2023/01/04 16:48:45;;;;;;;9.75;1.70;;;11.40;99.90;;;;;;12591690;28;20048;-86
2023/01/04 16:54:48;;;;;;;5.47;1.20;;;11.40;99.90;;;;;;12581373;28;20133;-85
2023/01/04 17:00:49;;;;;;;5.07;1.58;;;11.50;99.90;;;;;;12572104;28;20090;-85
2023/01/04 17:06:53;;;;;;;3.20;1.00;;;11.50;99.90;;;;;;12587781;28;20148;-86
2023/01/04 17:12:55;;;;;;;5.83;1.53;;;11.50;99.90;;;;;;12604167;28;20051;-87
2023/01/04 17:18:57;;;;;;;5.63;1.95;;;11.50;99.90;;;;;;12574888;28;20294;-87
2023/01/04 17:24:59;;;;;;;7.82;2.33;;;11.50;99.90;;;;;;12586008;28;20041;-88
2023/01/04 17:31:13;;;;;;;5.72;1.52;;;11.20;99.90;;;;;;12597244;28;20044;-87
2023/01/04 17:37:15;;;;;;;6.63;1.30;;;11.10;99.90;;;;;;12577854;28;20045;-88
2023/01/04 17:43:17;;;;;;;9.57;1.70;;;11.20;99.90;;;;;;12571954;28;20075;-86
2023/01/04 17:49:18;;;;;;;7.38;1.88;;;11.30;99.90;;;;;;12578404;28;20052;-86
2023/01/04 17:55:26;;;;;;;9.13;1.88;;;11.30;99.90;;;;;;12571661;28;20048;-87
2023/01/04 18:01:29;;;;;;;8.82;1.80;;;11.40;99.90;;;;;;12573325;28;20052;-86
2023/01/04 18:07:32;;;;;;;10.90;2.10;;;11.40;99.90;;;;;;12570059;28;20055;-86
2023/01/04 18:13:36;;;;;;;7.93;2.13;;;11.30;99.90;;;;;;12563313;28;20045;-88
2023/01/04 18:19:38;;;;;;;10.63;2.20;;;11.40;99.90;;;;;;12552472;28;20049;-87
2023/01/04 18:25:45;;;;;;;10.00;1.85;;;11.40;99.90;;;;;;12567847;28;20446;-87
2023/01/04 18:31:46;;;;;;;9.23;2.50;;;11.50;99.90;;;;;;12580808;28;20041;-87
2023/01/04 18:37:48;;;;;;;9.70;2.05;;;11.50;99.90;;;;;;12560223;28;20044;-86
2023/01/04 18:43:52;;;;;;;8.57;2.13;;;11.50;99.90;;;;;;12573179;28;20520;-86
2023/01/04 18:50:16;;;;;;;10.00;2.60;;;11.40;99.90;;;;;;12572178;28;20060;-87
2023/01/04 18:56:19;;;;;;;13.30;2.55;;;11.60;99.90;;;;;;12552897;28;20488;-86
2023/01/04 19:02:21;;;;;;;12.73;2.63;;;11.60;99.90;;;;;;12579883;28;21141;-87
2023/01/04 19:08:24;;;;;;;12.95;2.38;;;11.50;99.90;;;;;;12584152;28;20501;-86
2023/01/04 19:14:26;;;;;;;9.18;2.70;;;11.50;99.90;;;;;;12584036;28;20504;-86
2023/01/04 19:20:27;;;;;;;10.02;2.55;;;11.40;99.90;;;;;;12543944;28;20059;-87
2023/01/04 19:26:29;;;;;;;15.98;3.00;;;11.30;99.90;;;;;;12560987;28;20405;-86
2023/01/04 19:32:31;;;;;;;10.70;2.40;;;11.30;99.90;;;;;;12588816;28;20052;-86
2023/01/04 19:38:34;;;;;;;15.23;2.40;;;11.40;99.90;;;;;;12570177;28;20079;-85
2023/01/04 19:44:36;;;;;;;10.80;2.70;;;11.50;99.90;;;;;;12574881;28;20041;-86
2023/01/04 19:50:38;;;;;;;14.93;2.15;;;11.60;99.90;;;;;;12570316;28;20036;-87
2023/01/04 19:56:40;;;;;;;12.60;2.30;;;11.50;99.90;;;;;;12568512;28;20191;-88
2023/01/04 20:02:42;;;;;;;17.10;2.47;;;11.60;99.90;;;;;;12580213;28;20051;-87
2023/01/04 20:08:44;;;;;;;17.73;2.75;;;11.60;99.90;;;;;;12568892;28;20048;-87
2023/01/04 20:14:46;;;;;;;15.05;2.55;;;11.50;99.90;;;;;;12582215;28;20469;-87
2023/01/04 20:20:48;;;;;;;12.90;2.13;;;11.50;99.90;;;;;;12571542;28;20040;-87
2023/01/04 20:26:49;;;;;;;11.48;2.22;;;11.00;99.90;;;;;;12586232;28;20057;-87
2023/01/04 20:32:51;;;;;;;13.00;2.53;;;10.80;99.90;;;;;;12580900;28;20048;-86
2023/01/04 20:38:54;;;;;;;8.73;2.13;;;10.80;99.90;;;;;;12582942;28;20044;-86
2023/01/04 20:44:55;;;;;;;9.77;2.58;;;10.80;99.90;;;;;;12553622;28;20086;-87
2023/01/04 20:50:57;;;;;;;12.48;1.92;;;10.90;99.90;;;;;;12559788;28;20123;-86
2023/01/04 20:56:59;;;;;;;12.23;2.00;;;10.90;99.90;;;;;;12582254;28;20049;-87
2023/01/04 21:03:01;;;;;;;12.23;2.10;;;10.90;99.90;;;;;;12566659;28;20040;-87
2023/01/04 21:09:03;;;;;;;14.35;2.35;;;10.90;99.90;;;;;;12570161;28;20477;-87
2023/01/04 21:15:05;;;;;;;15.07;2.33;;;10.90;99.90;;;;;;12569705;28;20048;-87
2023/01/04 21:21:11;;;;;;;13.15;2.50;;;10.90;99.90;;;;;;12570837;28;20072;-86
2023/01/04 21:27:13;;;;;;;16.98;2.35;;;10.90;99.90;;;;;;12591686;28;20138;-86
2023/01/04 21:33:16;;;;;;;17.70;2.88;;;10.90;99.90;;;;;;12602906;28;20097;-86
2023/01/04 21:39:17;;;;;;;13.63;3.95;;;10.90;99.90;;;;;;12580758;28;20056;-85
2023/01/04 21:45:19;;;;;;;23.90;3.72;;;10.80;99.90;;;;;;12580375;28;20048;-87
2023/01/04 21:51:21;;;;;;;14.98;3.10;;;10.90;99.90;;;;;;12562361;28;20117;-87
2023/01/04 21:57:23;;;;;;;21.33;3.42;;;10.90;99.90;;;;;;12582371;28;20437;-87
2023/01/04 22:03:25;;;;;;;19.10;3.42;;;10.90;99.90;;;;;;12578480;28;20428;-87
2023/01/04 22:09:27;;;;;;;18.30;3.30;;;10.90;99.90;;;;;;12572990;28;20470;-87
2023/01/04 22:15:28;;;;;;;19.30;3.30;;;10.90;99.90;;;;;;12585948;28;20056;-86
2023/01/04 22:21:30;;;;;;;18.48;3.13;;;11.00;99.90;;;;;;12589538;28;20052;-85
2023/01/04 22:27:32;;;;;;;21.08;3.00;;;10.90;99.90;;;;;;12593341;28;20055;-88
2023/01/04 22:33:35;;;;;;;24.67;4.28;;;10.80;99.90;;;;;;12564021;28;20057;-87
2023/01/04 22:39:37;;;;;;;19.95;3.25;;;10.80;99.90;;;;;;12584461;28;20097;-86
2023/01/04 22:45:39;;;;;;;25.23;4.07;;;10.80;99.90;;;;;;12559021;28;20044;-87
2023/01/04 22:51:40;;;;;;;15.00;3.03;;;10.80;99.90;;;;;;12568134;28;20043;-86
2023/01/04 22:57:43;;;;;;;20.33;3.10;;;10.90;99.90;;;;;;12561987;28;20049;-87
2023/01/04 23:03:45;;;;;;;19.27;3.17;;;10.90;99.90;;;;;;12565372;28;20048;-87
2023/01/04 23:09:47;;;;;;;16.40;2.75;;;10.80;99.90;;;;;;12572298;28;20036;-86
2023/01/04 23:15:49;;;;;;;21.42;3.95;;;10.70;99.90;;;;;;12576326;28;20045;-87
2023/01/04 23:21:51;;;;;;;16.65;2.70;;;10.50;99.90;;;;;;12582814;28;20831;-87
2023/01/04 23:27:53;;;;;;;21.30;3.10;;;10.30;99.90;;;;;;12573320;28;20481;-88
2023/01/04 23:33:57;;;;;;;14.52;2.50;;;10.20;99.90;;;;;;12587907;28;20048;-88
2023/01/04 23:39:59;;;;;;;12.40;1.80;;;10.20;99.90;;;;;;12583560;28;20104;-87
2023/01/04 23:46:07;;;;;;;17.67;3.20;;;10.30;99.90;;;;;;12575519;28;20044;-87
2023/01/04 23:52:09;;;;;;;14.40;2.70;;;10.40;99.90;;;;;;12565173;28;20500;-86
2023/01/04 23:58:11;;;;;;;23.70;3.28;;;10.40;99.90;;;;;;12564006;28;20067;-87
